Time;durP1;ratioP1;P1;durP2;ratioP2;P2;SDS_P1;SDS_P2;PMS_P1;PMS_P2;Temp;Humidity;BMP_temperature;BMP_pressure;BME280_temperature;BME280_humidity;BME280_pressure;Samples;Min_cycle;Max_cycle;Signal;HPM_P1;HPM_P2
2023/10/13 00:02:01;;;;;;;13.30;5.63;;;;;;;;;;4952961;29;20043;-67
2023/10/13 00:04:32;;;;;;;13.95;6.40;;;;;;;;;;4953269;28;20035;-68
2023/10/13 00:06:59;;;;;;;10.57;5.72;;;;;;;;;;4953101;29;20023;-67
2023/10/13 00:09:31;;;;;;;15.50;6.15;;;;;;;;;;4953145;29;20118;-67
2023/10/13 00:11:58;;;;;;;14.10;6.18;;;;;;;;;;4953047;29;20476;-67
2023/10/13 00:14:32;;;;;;;11.57;5.85;;;;;;;;;;4953654;29;20031;-68
2023/10/13 00:17:03;;;;;;;10.57;5.97;;;;;;;;;;4954581;29;20034;-67
2023/10/13 00:19:37;;;;;;;12.02;6.18;;;;;;;;;;4954637;29;20118;-67
2023/10/13 00:22:10;;;;;;;13.43;6.03;;;;;;;;;;4954551;29;20054;-67
2023/10/13 00:24:43;;;;;;;12.45;5.72;;;;;;;;;;4954544;29;20031;-66
2023/10/13 00:27:33;;;;;;;13.43;6.32;;;;;;;;;;4954463;28;20502;-66
2023/10/13 00:32:56;;;;;;;10.73;6.25;;;;;;;;;;4954734;29;20033;-66
2023/10/13 00:35:28;;;;;;;9.98;5.72;;;;;;;;;;4954743;29;20031;-66
2023/10/13 00:37:59;;;;;;;8.38;5.20;;;;;;;;;;4954296;29;20054;-67
2023/10/13 00:40:44;;;;;;;;;;;;;;;;;;4954751;29;20114;-66
2023/10/13 00:46:05;;;;;;;9.90;5.72;;;;;;;;;;4954293;29;20038;-68
2023/10/13 00:48:43;;;;;;;14.18;5.82;;;;;;;;;;4954408;29;20079;-66
2023/10/13 00:53:56;;;;;;;10.25;5.40;;;;;;;;;;4954192;29;20090;-67
2023/10/13 00:56:26;;;;;;;8.68;5.18;;;;;;;;;;4954267;29;20031;-66
2023/10/13 00:58:53;;;;;;;;;;;;;;;;;;4954829;29;20027;-67
2023/10/13 01:01:22;;;;;;;8.85;5.10;;;;;;;;;;4953661;29;19914;-66
2023/10/13 01:03:55;;;;;;;10.90;6.32;;;;;;;;;;4954425;29;20353;-67
2023/10/13 01:06:25;;;;;;;11.60;5.55;;;;;;;;;;4954176;29;20516;-66
2023/10/13 01:08:57;;;;;;;;;;;;;;;;;;4954869;29;20040;-67
2023/10/13 01:11:23;;;;;;;12.80;5.72;;;;;;;;;;4954081;29;19915;-66
2023/10/13 01:13:51;;;;;;;9.00;5.35;;;;;;;;;;4954296;29;20034;-66
2023/10/13 01:16:17;;;;;;;10.40;5.68;;;;;;;;;;4954339;28;20023;-66
2023/10/13 01:18:49;;;;;;;8.35;5.00;;;;;;;;;;4954343;29;20485;-66
2023/10/13 01:21:26;;;;;;;9.70;5.70;;;;;;;;;;4956706;28;20031;-67
2023/10/13 06:29:08;;;;;;;6.13;5.22;;;;;;;;;;4956779;29;20498;-68
2023/10/13 06:31:35;;;;;;;7.55;5.10;;;;;;;;;;4956358;29;20035;-70
2023/10/13 06:34:03;;;;;;;7.68;5.07;;;;;;;;;;4956290;29;20031;-69
2023/10/13 06:36:28;;;;;;;7.60;4.63;;;;;;;;;;4956401;29;20023;-70
2023/10/13 06:39:25;;;;;;;6.50;5.07;;;;;;;;;;4956604;28;20038;-70
2023/10/13 06:41:43;;;;;;;6.25;4.60;;;;;;;;;;4956042;29;20195;-71
2023/10/13 06:44:15;;;;;;;7.93;5.38;;;;;;;;;;4956596;29;20023;-68
2023/10/13 06:46:40;;;;;;;7.15;5.35;;;;;;;;;;4956254;29;20086;-70
2023/10/13 06:49:08;;;;;;;6.82;4.68;;;;;;;;;;4956264;29;20028;-68
2023/10/13 06:51:37;;;;;;;6.32;5.25;;;;;;;;;;4956458;29;20122;-70
2023/10/13 06:54:21;;;;;;;6.80;4.60;;;;;;;;;;4956244;29;20110;-69
2023/10/13 06:56:52;;;;;;;7.70;5.00;;;;;;;;;;4956094;29;20387;-71
2023/10/13 06:59:17;;;;;;;6.90;5.07;;;;;;;;;;4956067;29;20035;-70
2023/10/13 07:01:44;;;;;;;7.70;5.32;;;;;;;;;;4956278;29;20034;-68
2023/10/13 07:04:13;;;;;;;8.15;5.07;;;;;;;;;;4956065;29;20462;-68
2023/10/13 07:06:44;;;;;;;7.07;5.10;;;;;;;;;;4955962;29;20027;-71
2023/10/13 07:09:39;;;;;;;6.70;4.85;;;;;;;;;;4939447;29;20034;-68
2023/10/13 07:12:01;;;;;;;7.78;5.05;;;;;;;;;;4955797;29;20086;-70
2023/10/13 07:14:27;;;;;;;5.82;4.20;;;;;;;;;;4955774;29;20023;-68
2023/10/13 07:17:02;;;;;;;6.18;4.97;;;;;;;;;;4956027;29;20023;-71
2023/10/13 07:19:28;;;;;;;6.53;4.57;;;;;;;;;;4955674;29;20086;-71
2023/10/13 07:22:40;;;;;;;6.68;4.70;;;;;;;;;;4955508;29;20031;-70
2023/10/13 07:24:50;;;;;;;8.05;4.82;;;;;;;;;;4947732;29;20051;-70
2023/10/13 07:27:24;;;;;;;6.80;4.55;;;;;;;;;;4955604;29;20054;-70
2023/10/13 07:29:56;;;;;;;5.43;4.50;;;;;;;;;;4955965;29;20577;-70
2023/10/13 07:32:26;;;;;;;7.20;4.38;;;;;;;;;;4955475;29;20110;-70
2023/10/13 07:34:57;;;;;;;4.75;4.25;;;;;;;;;;4955610;29;20050;-69
2023/10/13 07:37:28;;;;;;;7.68;4.72;;;;;;;;;;4954416;28;20487;-71
2023/10/13 07:39:57;;;;;;;5.85;4.93;;;;;;;;;;4955399;29;20028;-69
2023/10/13 07:42:30;;;;;;;4.43;4.00;;;;;;;;;;4955116;29;20543;-71
2023/10/13 07:44:56;;;;;;;5.55;4.25;;;;;;;;;;4955235;29;20460;-70
2023/10/13 07:47:24;;;;;;;6.70;4.80;;;;;;;;;;4955160;29;20026;-70
2023/10/13 07:49:50;;;;;;;5.05;4.30;;;;;;;;;;4955415;29;20388;-70
2023/10/13 07:54:49;;;;;;;7.25;4.47;;;;;;;;;;4955079;29;20117;-70
2023/10/13 07:57:17;;;;;;;5.40;4.32;;;;;;;;;;4955273;29;20023;-70
2023/10/13 07:59:52;;;;;;;6.22;4.70;;;;;;;;;;4954961;29;20503;-71
2023/10/13 08:05:04;;;;;;;4.85;4.35;;;;;;;;;;4955337;29;20034;-71
2023/10/13 08:07:31;;;;;;;6.10;4.55;;;;;;;;;;4954840;29;20030;-71
2023/10/13 08:09:59;;;;;;;5.22;4.65;;;;;;;;;;4954894;29;20055;-71
2023/10/13 08:12:25;;;;;;;5.45;4.25;;;;;;;;;;4954621;29;20030;-72
2023/10/13 08:15:09;;;;;;;6.25;4.70;;;;;;;;;;4954620;29;20027;-71
2023/10/13 08:17:35;;;;;;;5.03;4.40;;;;;;;;;;4955036;29;20035;-71
2023/10/13 08:20:11;;;;;;;6.45;4.93;;;;;;;;;;4954848;29;20499;-71
2023/10/13 08:22:38;;;;;;;7.18;4.30;;;;;;;;;;4954400;29;20031;-69
2023/10/13 08:25:33;;;;;;;6.32;4.53;;;;;;;;;;4954244;29;20047;-71
2023/10/13 08:30:52;;;;;;;6.72;5.13;;;;;;;;;;4954533;29;20094;-71
2023/10/13 08:33:17;;;;;;;4.85;4.38;;;;;;;;;;4954656;29;20097;-70
2023/10/13 08:38:50;;;;;;;4.95;4.25;;;;;;;;;;4909549;29;20499;-69
2023/10/13 08:43:51;;;;;;;5.72;4.65;;;;;;;;;;4954443;29;20027;-69
2023/10/13 08:46:30;;;;;;;6.55;4.72;;;;;;;;;;4954913;29;20031;-72
2023/10/13 08:49:15;;;;;;;6.32;4.35;;;;;;;;;;4955287;28;20031;-71
2023/10/13 08:52:46;;;;;;;7.55;4.82;;;;;;;;;;4956562;28;20116;-69
2023/10/13 08:54:45;;;;;;;6.45;4.45;;;;;;;;;;4946540;29;20182;-70
2023/10/13 08:57:30;;;;;;;6.15;4.47;;;;;;;;;;4957023;29;20031;-69
2023/10/13 08:59:55;;;;;;;6.18;4.72;;;;;;;;;;4957214;29;20032;-71
2023/10/13 09:05:41;;;;;;;5.85;4.38;;;;;;;;;;4956769;29;20022;-70
2023/10/13 09:07:57;;;;;;;5.35;4.20;;;;;;;;;;4956724;29;20110;-70
2023/10/13 09:10:44;;;;;;;7.35;4.93;;;;;;;;;;4955789;29;20026;-71
2023/10/13 09:13:20;;;;;;;5.80;4.50;;;;;;;;;;4955290;29;20061;-70
2023/10/13 09:16:00;;;;;;;6.43;4.25;;;;;;;;;;4956234;29;20047;-71
2023/10/13 09:18:42;;;;;;;6.65;4.45;;;;;;;;;;4956429;29;20023;-71
2023/10/13 09:24:10;;;;;;;5.22;4.60;;;;;;;;;;4938688;29;20086;-72
2023/10/13 09:26:36;;;;;;;5.43;4.47;;;;;;;;;;4938811;29;20429;-72
2023/10/13 09:29:03;;;;;;;5.47;4.70;;;;;;;;;;4934546;29;20089;-72
2023/10/13 09:31:32;;;;;;;6.28;4.53;;;;;;;;;;4919493;29;20031;-71
2023/10/13 09:33:58;;;;;;;6.25;4.78;;;;;;;;;;4938598;29;20078;-72
2023/10/13 09:36:25;;;;;;;6.00;4.60;;;;;;;;;;4938525;29;20019;-71
2023/10/13 09:39:12;;;;;;;4.82;4.35;;;;;;;;;;4938306;29;20031;-71
2023/10/13 09:41:40;;;;;;;4.75;4.13;;;;;;;;;;4938118;29;20066;-72
2023/10/13 09:44:08;;;;;;;7.07;4.47;;;;;;;;;;4938136;29;20028;-71
2023/10/13 09:46:41;;;;;;;5.00;4.40;;;;;;;;;;4938177;29;20028;-71
2023/10/13 09:49:22;;;;;;;5.75;4.82;;;;;;;;;;4938327;29;20106;-71
2023/10/13 09:51:48;;;;;;;5.45;4.55;;;;;;;;;;4938034;29;20027;-71
2023/10/13 09:54:23;;;;;;;5.82;4.25;;;;;;;;;;4938229;29;20028;-71
2023/10/13 09:56:55;;;;;;;5.07;4.57;;;;;;;;;;4938256;29;20034;-72
2023/10/13 09:59:36;;;;;;;5.50;4.28;;;;;;;;;;4937951;29;20030;-71
2023/10/13 10:02:09;;;;;;;4.38;3.97;;;;;;;;;;4937025;29;20111;-71
2023/10/13 10:04:45;;;;;;;4.95;4.28;;;;;;;;;;4937783;29;20024;-71
2023/10/13 10:07:10;;;;;;;6.03;4.70;;;;;;;;;;4937811;29;20038;-71
2023/10/13 10:09:39;;;;;;;5.15;4.65;;;;;;;;;;4937684;29;20032;-71
2023/10/13 10:12:21;;;;;;;6.88;5.43;;;;;;;;;;4937672;29;20024;-72
2023/10/13 10:15:28;;;;;;;5.55;4.82;;;;;;;;;;4936094;29;20109;-71
2023/10/13 10:17:54;;;;;;;7.45;4.88;;;;;;;;;;4935730;29;20024;-71
2023/10/13 10:20:41;;;;;;;6.00;5.13;;;;;;;;;;4935146;29;20039;-71
2023/10/13 10:23:21;;;;;;;10.25;4.95;;;;;;;;;;4935965;29;20104;-71
2023/10/13 10:25:48;;;;;;;7.40;5.50;;;;;;;;;;4936476;29;20385;-71
2023/10/13 10:28:15;;;;;;;6.68;5.30;;;;;;;;;;4935947;29;20031;-71
2023/10/13 10:30:42;;;;;;;6.95;5.15;;;;;;;;;;4937160;29;20115;-71
2023/10/13 10:33:12;;;;;;;7.25;5.07;;;;;;;;;;4937111;29;20550;-72
2023/10/13 10:35:42;;;;;;;6.78;4.80;;;;;;;;;;4937269;29;20032;-71
2023/10/13 10:38:11;;;;;;;;;;;;;;;;;;4937213;29;20419;-71
2023/10/13 10:40:58;;;;;;;8.38;5.40;;;;;;;;;;4937242;29;19915;-71
2023/10/13 10:43:29;;;;;;;7.82;5.07;;;;;;;;;;4937112;29;20503;-71
2023/10/13 10:45:59;;;;;;;6.32;4.88;;;;;;;;;;4937327;29;20170;-71
2023/10/13 10:48:31;;;;;;;;;;;;;;;;;;4937852;29;20122;-71
2023/10/13 10:50:58;;;;;;;6.10;4.70;;;;;;;;;;4937139;29;19970;-71
2023/10/13 10:53:44;;;;;;;7.47;6.20;;;;;;;;;;4937223;29;20047;-71
2023/10/13 10:56:20;;;;;;;8.10;6.50;;;;;;;;;;4936287;29;20111;-72
2023/10/13 10:58:47;;;;;;;8.18;6.45;;;;;;;;;;4936949;29;20036;-72
2023/10/13 11:01:20;;;;;;;7.40;5.22;;;;;;;;;;4936763;29;20094;-71
2023/10/13 11:07:06;;;;;;;8.88;6.20;;;;;;;;;;4840922;29;20053;-72
2023/10/13 11:12:14;;;;;;;7.43;5.38;;;;;;;;;;4886611;29;20430;-72
2023/10/13 11:14:40;;;;;;;6.82;5.00;;;;;;;;;;4919625;29;20464;-71
2023/10/13 11:17:24;;;;;;;6.32;4.97;;;;;;;;;;4936828;29;20027;-71
2023/10/13 11:19:49;;;;;;;5.53;5.00;;;;;;;;;;4936590;29;20445;-70
2023/10/13 11:22:29;;;;;;;5.35;4.82;;;;;;;;;;4936193;29;20118;-71
2023/10/13 11:25:11;;;;;;;7.30;5.30;;;;;;;;;;4951040;29;20050;-73
2023/10/13 11:30:20;;;;;;;6.88;5.10;;;;;;;;;;4955398;29;20058;-70
2023/10/13 11:33:06;;;;;;;7.03;5.50;;;;;;;;;;4955222;29;20035;-70
2023/10/13 11:38:25;;;;;;;8.57;5.32;;;;;;;;;;4965932;28;20531;-73
2023/10/13 11:41:14;;;;;;;7.00;5.25;;;;;;;;;;4974833;28;20542;-69
2023/10/13 11:46:48;;;;;;;6.15;5.55;;;;;;;;;;4955219;29;20024;-72
2023/10/13 11:51:44;;;;;;;6.15;5.40;;;;;;;;;;4954953;29;20046;-71
2023/10/13 11:54:14;;;;;;;7.45;5.60;;;;;;;;;;4954995;29;20030;-71
2023/10/13 11:56:40;;;;;;;8.05;6.20;;;;;;;;;;4955006;29;20031;-72
2023/10/13 11:59:05;;;;;;;8.00;5.95;;;;;;;;;;4955020;29;20496;-71
2023/10/13 12:04:33;;;;;;;6.60;5.70;;;;;;;;;;4957687;28;20034;-72
2023/10/13 12:07:17;;;;;;;8.40;6.00;;;;;;;;;;4963102;28;20035;-72
2023/10/13 12:12:26;;;;;;;8.73;5.78;;;;;;;;;;4960860;28;20082;-71
2023/10/13 12:14:57;;;;;;;8.38;7.18;;;;;;;;;;4945958;28;20408;-71
2023/10/13 12:17:36;;;;;;;10.30;8.38;;;;;;;;;;4942578;29;20027;-71
2023/10/13 12:20:17;;;;;;;11.70;8.33;;;;;;;;;;4954946;29;20023;-71
2023/10/13 12:22:43;;;;;;;10.45;8.38;;;;;;;;;;4937192;29;20042;-72
2023/10/13 12:26:19;;;;;;;9.35;7.93;;;;;;;;;;4936906;29;20019;-71
2023/10/13 12:28:18;;;;;;;11.60;9.07;;;;;;;;;;4933520;29;20066;-71
2023/10/13 12:30:52;;;;;;;9.60;7.38;;;;;;;;;;4954934;29;20031;-71
2023/10/13 12:33:24;;;;;;;12.88;8.43;;;;;;;;;;4953321;28;20035;-71
2023/10/13 12:52:15;;;;;;;9.98;6.82;;;;;;;;;;4973618;28;20023;-71
2023/10/13 12:55:27;;;;;;;13.23;8.30;;;;;;;;;;4973471;28;20035;-71
2023/10/13 12:57:34;;;;;;;10.68;8.23;;;;;;;;;;4965539;28;20089;-72
2023/10/13 13:00:00;;;;;;;8.82;7.35;;;;;;;;;;4973717;28;20022;-72
2023/10/13 13:02:26;;;;;;;11.10;7.65;;;;;;;;;;4972747;28;20037;-71
2023/10/13 13:05:21;;;;;;;8.80;6.00;;;;;;;;;;4973297;28;20540;-71
2023/10/13 13:07:52;;;;;;;;;;;;;;;;;;4973382;28;20046;-71
2023/10/13 13:10:18;;;;;;;9.68;8.32;;;;;;;;;;4973308;28;19958;-72
2023/10/13 13:12:44;;;;;;;10.35;8.07;;;;;;;;;;4973311;28;20475;-70
2023/10/13 13:15:11;;;;;;;9.10;7.88;;;;;;;;;;4973734;28;20034;-70
2023/10/13 13:17:38;;;;;;;9.45;6.82;;;;;;;;;;4967394;28;20238;-71
2023/10/13 13:20:12;;;;;;;8.95;7.18;;;;;;;;;;4954138;29;20098;-72
2023/10/13 13:22:38;;;;;;;10.35;8.07;;;;;;;;;;4953885;29;20070;-69
2023/10/13 13:25:08;;;;;;;11.10;7.68;;;;;;;;;;4953671;29;20082;-69
2023/10/13 13:27:34;;;;;;;11.70;8.07;;;;;;;;;;4953945;29;20031;-69
2023/10/13 13:30:00;;;;;;;9.95;6.88;;;;;;;;;;4954113;29;20023;-69
2023/10/13 13:32:28;;;;;;;8.13;6.90;;;;;;;;;;4954081;29;20094;-71
2023/10/13 13:35:07;;;;;;;9.30;7.88;;;;;;;;;;4954762;28;20066;-72
2023/10/13 13:37:33;;;;;;;11.32;7.68;;;;;;;;;;4957444;29;20601;-71
2023/10/13 13:40:21;;;;;;;10.70;8.48;;;;;;;;;;4957362;29;20116;-71
2023/10/13 13:42:47;;;;;;;9.70;6.95;;;;;;;;;;4957182;29;20031;-69
2023/10/13 13:45:27;;;;;;;11.82;7.63;;;;;;;;;;4957284;29;20034;-69
2023/10/13 13:47:55;;;;;;;;;;;;;;;;;;4957731;29;20019;-72
2023/10/13 13:50:26;;;;;;;11.07;7.28;;;;;;;;;;4966248;28;20402;-71
2023/10/13 13:52:55;;;;;;;12.65;7.85;;;;;;;;;;4976625;28;20029;-71
2023/10/13 13:55:26;;;;;;;13.00;7.78;;;;;;;;;;4976611;28;20034;-70
2023/10/13 13:57:51;;;;;;;15.68;7.78;;;;;;;;;;4976395;28;20026;-69
2023/10/13 14:00:36;;;;;;;15.20;7.45;;;;;;;;;;4976259;28;20030;-71
2023/10/13 14:03:05;;;;;;;11.50;8.00;;;;;;;;;;4968286;28;20125;-72
2023/10/13 14:05:31;;;;;;;14.20;8.30;;;;;;;;;;4967517;28;20501;-71
2023/10/13 14:07:57;;;;;;;20.95;9.85;;;;;;;;;;4970660;28;20265;-71
2023/10/13 14:10:33;;;;;;;21.85;9.50;;;;;;;;;;4963386;28;20025;-69
2023/10/13 14:13:47;;;;;;;18.85;8.68;;;;;;;;;;4941065;29;20042;-70
2023/10/13 14:15:47;;;;;;;16.42;9.43;;;;;;;;;;4956308;29;20045;-71
2023/10/13 14:18:16;;;;;;;19.42;8.55;;;;;;;;;;4957292;29;20027;-73
2023/10/13 14:20:42;;;;;;;18.75;9.57;;;;;;;;;;4962881;28;20022;-69
2023/10/13 14:23:11;;;;;;;17.60;9.13;;;;;;;;;;4975704;28;20047;-70
2023/10/13 14:25:38;;;;;;;15.57;8.38;;;;;;;;;;4976026;28;20027;-71
2023/10/13 14:28:07;;;;;;;21.73;10.05;;;;;;;;;;4976164;28;20101;-71
2023/10/13 14:30:33;;;;;;;21.60;10.20;;;;;;;;;;4976138;28;20383;-72
2023/10/13 14:32:59;;;;;;;20.90;9.38;;;;;;;;;;4975877;28;20030;-71
2023/10/13 14:35:25;;;;;;;22.63;8.88;;;;;;;;;;4970028;28;20474;-71
2023/10/13 14:37:52;;;;;;;13.68;8.35;;;;;;;;;;4964440;28;20038;-70
2023/10/13 14:40:21;;;;;;;17.27;8.93;;;;;;;;;;4966153;28;20379;-70
2023/10/13 14:42:47;;;;;;;18.23;9.33;;;;;;;;;;4974289;28;20093;-70
2023/10/13 14:45:13;;;;;;;16.10;8.75;;;;;;;;;;4975934;28;20252;-71
2023/10/13 14:47:40;;;;;;;19.02;9.30;;;;;;;;;;4975069;28;20385;-70
2023/10/13 14:50:06;;;;;;;14.68;8.48;;;;;;;;;;4975696;28;20376;-70
2023/10/13 14:52:32;;;;;;;19.33;9.23;;;;;;;;;;4975745;28;20088;-70
2023/10/13 14:55:00;;;;;;;19.30;9.32;;;;;;;;;;4975506;28;20427;-70
2023/10/13 14:57:26;;;;;;;19.20;9.10;;;;;;;;;;4975208;28;20027;-69
2023/10/13 14:59:56;;;;;;;20.48;9.35;;;;;;;;;;4975367;28;20030;-70
2023/10/13 15:02:22;;;;;;;18.58;8.45;;;;;;;;;;4975540;28;20035;-70
2023/10/13 15:04:49;;;;;;;18.90;9.45;;;;;;;;;;4975194;28;20027;-70
2023/10/13 15:07:16;;;;;;;16.05;8.20;;;;;;;;;;4958115;28;20097;-70
2023/10/13 15:09:42;;;;;;;20.13;8.93;;;;;;;;;;4974961;28;20035;-69
2023/10/13 15:12:11;;;;;;;13.82;8.27;;;;;;;;;;4975018;28;20109;-70
2023/10/13 15:14:39;;;;;;;16.70;9.15;;;;;;;;;;4975037;28;20107;-69
2023/10/13 15:17:06;;;;;;;15.48;8.48;;;;;;;;;;4975252;28;20026;-70
2023/10/13 15:19:38;;;;;;;18.70;8.98;;;;;;;;;;4958072;28;20019;-71
2023/10/13 15:22:07;;;;;;;19.65;10.80;;;;;;;;;;4975003;28;20019;-70
2023/10/13 15:24:41;;;;;;;16.02;8.13;;;;;;;;;;4974985;28;20447;-70
2023/10/13 15:27:08;;;;;;;17.05;8.65;;;;;;;;;;4974922;28;20023;-70
2023/10/13 15:29:37;;;;;;;18.20;7.68;;;;;;;;;;4975099;28;20357;-70
2023/10/13 15:34:31;;;;;;;15.02;8.75;;;;;;;;;;4971736;28;20042;-70
2023/10/13 15:36:58;;;;;;;18.75;8.27;;;;;;;;;;4974989;28;20023;-69
2023/10/13 15:39:28;;;;;;;14.38;8.50;;;;;;;;;;4970629;28;20034;-68
2023/10/13 15:41:58;;;;;;;13.27;7.97;;;;;;;;;;4964948;28;20074;-69
2023/10/13 15:44:24;;;;;;;;;;;;;;;;;;4964728;28;20114;-70
2023/10/13 15:46:54;;;;;;;12.50;6.97;;;;;;;;;;4967815;28;20389;-69
2023/10/13 15:49:19;;;;;;;19.33;8.43;;;;;;;;;;4963817;28;20071;-70
2023/10/13 15:51:45;;;;;;;16.00;7.40;;;;;;;;;;4965093;28;20066;-70
2023/10/13 15:54:17;;;;;;;16.55;6.85;;;;;;;;;;4960906;28;20041;-69
2023/10/13 15:56:48;;;;;;;12.75;8.00;;;;;;;;;;4974345;28;20033;-70
2023/10/13 15:59:14;;;;;;;16.33;7.43;;;;;;;;;;4973782;28;20113;-70
2023/10/13 16:01:40;;;;;;;16.63;7.90;;;;;;;;;;4974224;28;20023;-69
2023/10/13 16:04:13;;;;;;;12.40;7.05;;;;;;;;;;4974172;28;20034;-70
2023/10/13 16:06:46;;;;;;;13.95;7.18;;;;;;;;;;4974188;28;20468;-70
2023/10/13 16:09:22;;;;;;;13.88;8.05;;;;;;;;;;4973866;28;20113;-70
2023/10/13 16:11:49;;;;;;;15.05;7.70;;;;;;;;;;4974102;28;20566;-69
2023/10/13 16:14:17;;;;;;;15.15;7.85;;;;;;;;;;4973236;28;20030;-70
2023/10/13 16:16:47;;;;;;;14.38;7.07;;;;;;;;;;4974003;28;20031;-69
2023/10/13 16:19:25;;;;;;;;;;;;;;;;;;4974766;28;20033;-70
2023/10/13 16:21:52;;;;;;;15.50;7.53;;;;;;;;;;4974258;28;19949;-70
2023/10/13 16:24:19;;;;;;;10.98;7.03;;;;;;;;;;4973854;28;20373;-69
2023/10/13 16:26:55;;;;;;;13.57;6.38;;;;;;;;;;4974022;28;20055;-70
2023/10/13 16:29:21;;;;;;;13.85;7.57;;;;;;;;;;4974125;28;20090;-70
2023/10/13 16:31:48;;;;;;;10.38;6.72;;;;;;;;;;4973917;28;20041;-69
2023/10/13 16:34:15;;;;;;;13.30;7.13;;;;;;;;;;4956518;28;20031;-70
2023/10/13 16:36:43;;;;;;;10.50;7.22;;;;;;;;;;4973709;28;20455;-70
2023/10/13 16:39:10;;;;;;;10.93;6.00;;;;;;;;;;4973732;28;20039;-70
2023/10/13 16:41:35;;;;;;;15.20;7.50;;;;;;;;;;4973580;28;20034;-70
2023/10/13 16:44:06;;;;;;;11.48;6.95;;;;;;;;;;4973859;28;20031;-70
2023/10/13 16:46:33;;;;;;;12.02;7.40;;;;;;;;;;4973994;28;20030;-70
2023/10/13 16:48:59;;;;;;;11.00;7.05;;;;;;;;;;4973713;28;20022;-70
2023/10/13 16:51:25;;;;;;;11.98;7.15;;;;;;;;;;4973778;28;20034;-69
2023/10/13 16:53:50;;;;;;;10.02;6.90;;;;;;;;;;4973609;28;20384;-70
2023/10/13 16:56:17;;;;;;;10.23;6.88;;;;;;;;;;4973756;28;20046;-70
2023/10/13 16:58:45;;;;;;;14.63;6.57;;;;;;;;;;4973964;28;20121;-69
2023/10/13 17:01:12;;;;;;;11.18;7.07;;;;;;;;;;4973609;28;20062;-70
2023/10/13 17:03:39;;;;;;;11.52;6.15;;;;;;;;;;4974017;28;20053;-70
2023/10/13 17:06:04;;;;;;;10.68;6.63;;;;;;;;;;4973517;28;20026;-70
2023/10/13 17:08:30;;;;;;;12.25;6.47;;;;;;;;;;4973579;28;20046;-70
2023/10/13 17:11:06;;;;;;;12.38;7.05;;;;;;;;;;4976103;28;20034;-69
2023/10/13 17:13:32;;;;;;;12.02;7.53;;;;;;;;;;4977449;28;20030;-70
2023/10/13 17:15:59;;;;;;;11.38;6.47;;;;;;;;;;4977679;28;20019;-69
2023/10/13 17:18:27;;;;;;;9.85;6.40;;;;;;;;;;4977273;28;20027;-69
2023/10/13 17:20:55;;;;;;;15.95;7.93;;;;;;;;;;4977639;28;20030;-69
2023/10/13 17:23:21;;;;;;;12.32;7.57;;;;;;;;;;4976943;28;20116;-70
2023/10/13 17:25:46;;;;;;;11.32;7.10;;;;;;;;;;4977426;28;20023;-70
2023/10/13 17:28:13;;;;;;;10.93;7.22;;;;;;;;;;4977104;28;20019;-70
2023/10/13 17:30:39;;;;;;;10.18;6.22;;;;;;;;;;4973860;28;20437;-70
2023/10/13 17:33:11;;;;;;;12.57;6.70;;;;;;;;;;4960188;28;20038;-71
2023/10/13 17:35:39;;;;;;;10.18;6.82;;;;;;;;;;4967874;28;20038;-68
2023/10/13 17:38:05;;;;;;;10.90;6.78;;;;;;;;;;4966785;28;20375;-70
2023/10/13 17:40:30;;;;;;;11.52;7.00;;;;;;;;;;4967143;28;20270;-70
2023/10/13 17:42:56;;;;;;;10.10;6.05;;;;;;;;;;4964433;28;20031;-69
2023/10/13 17:45:24;;;;;;;10.48;6.88;;;;;;;;;;4971813;28;20435;-70
2023/10/13 17:47:51;;;;;;;13.52;6.97;;;;;;;;;;4959765;28;20038;-69
2023/10/13 17:50:16;;;;;;;13.48;6.50;;;;;;;;;;4964438;28;20064;-71
2023/10/13 17:52:47;;;;;;;10.73;6.50;;;;;;;;;;4955271;28;20050;-69
2023/10/13 17:55:14;;;;;;;11.40;6.65;;;;;;;;;;4953850;29;20357;-69
2023/10/13 17:57:40;;;;;;;11.88;6.72;;;;;;;;;;4955062;29;20485;-71
2023/10/13 18:00:22;;;;;;;10.50;6.97;;;;;;;;;;4949579;28;20054;-69
2023/10/13 18:02:52;;;;;;;9.38;6.28;;;;;;;;;;4948855;29;20023;-69
2023/10/13 18:05:18;;;;;;;10.30;6.55;;;;;;;;;;4947031;29;20044;-71
2023/10/13 18:07:44;;;;;;;12.18;7.30;;;;;;;;;;4954203;29;20042;-72
2023/10/13 18:10:12;;;;;;;10.02;6.63;;;;;;;;;;4953443;28;20027;-70
2023/10/13 18:12:41;;;;;;;10.70;6.55;;;;;;;;;;4954105;29;20030;-70
2023/10/13 18:15:09;;;;;;;15.20;7.30;;;;;;;;;;4955317;29;20027;-69
2023/10/13 18:17:36;;;;;;;11.18;6.70;;;;;;;;;;4954711;29;20024;-68
2023/10/13 18:20:10;;;;;;;8.60;6.82;;;;;;;;;;4954889;29;20034;-68
2023/10/13 18:22:39;;;;;;;11.57;6.28;;;;;;;;;;4953068;28;20485;-68
2023/10/13 18:25:11;;;;;;;15.25;5.93;;;;;;;;;;4950514;29;20527;-68
2023/10/13 18:27:43;;;;;;;12.52;6.95;;;;;;;;;;4955510;29;20491;-67
2023/10/13 18:30:13;;;;;;;12.60;7.18;;;;;;;;;;4948230;29;20123;-68
2023/10/13 18:32:40;;;;;;;;;;;;;;;;;;4954344;29;20055;-69
2023/10/13 18:35:08;;;;;;;12.57;6.80;;;;;;;;;;4956116;29;19915;-69
2023/10/13 18:37:36;;;;;;;10.55;6.90;;;;;;;;;;4949656;29;20040;-70
2023/10/13 18:40:06;;;;;;;10.57;6.93;;;;;;;;;;4937691;28;20038;-70
2023/10/13 18:42:41;;;;;;;11.52;6.80;;;;;;;;;;4975494;28;20431;-68
2023/10/13 18:45:13;;;;;;;13.90;6.75;;;;;;;;;;4975548;28;20098;-69
2023/10/13 18:47:39;;;;;;;12.40;6.90;;;;;;;;;;4975585;28;20035;-69
2023/10/13 18:50:05;;;;;;;12.25;6.68;;;;;;;;;;4974755;28;20254;-69
2023/10/13 18:52:31;;;;;;;11.38;6.22;;;;;;;;;;4975434;28;20031;-68
2023/10/13 18:54:57;;;;;;;14.52;7.25;;;;;;;;;;4975411;28;20027;-69
2023/10/13 18:57:23;;;;;;;10.48;6.68;;;;;;;;;;4975365;28;20034;-69
2023/10/13 18:59:49;;;;;;;10.98;6.82;;;;;;;;;;4957847;28;20122;-68
2023/10/13 19:02:15;;;;;;;9.52;6.53;;;;;;;;;;4975476;28;20062;-68
2023/10/13 19:04:42;;;;;;;11.27;7.00;;;;;;;;;;4975134;28;20524;-70
2023/10/13 19:07:08;;;;;;;8.38;6.18;;;;;;;;;;4974463;28;20038;-69
